Cromwell, Indiana
Current Conditions -  °F | °C
As of 1:53 PM on Thursday 18 Dec 2014 (Local Time) from KGSH Reporting Station
Haze Haze  
Wind Chill: 17°   Ceiling: 1200
Heat Index: 27°   Visibility: 6mi
Dew Point: 23°   Wind: 10mph
Humidity: 85%   Direction: 270°W
Pressure: 30.21"   Gusts: NA
Location:  41.4°N, 85.62°W
Report Text: KGSH 181853Z AUTO 27009KT 6SM BR OVC012 M03/M05 A3021 RMK AO2 SLP241 T10281050
Loading
Personal Weather Stations






























Interactive Weather Map New forecast layout! Learn more

10-Day Weather Forecast

Advertisements
Track Severe Weather on mobile